OEFCA EDFM-EDFM
Flight info
| Callsign | OEFCA |
|---|---|
| Flight time | N/A |
| Altitude | 4000 |
| Route | EDFM DCT EDSB DCT EDFM |
| Aircraft | DA40/L-VGD/A |
Departure
| Time | 2026-04-26 16:46 |
|---|---|
| Airport | Mannheim-City Airport (EDFM) |
Arrival
| Time | N/A |
|---|---|
| Airport | Mannheim-City Airport (EDFM) |
| Time | Latitude | Longitude | Altitude | Speed | Heading |
|---|---|---|---|---|---|
| 2026-04-26 16:38 | 49.47561 | 8.52029 | 312 ft | 0 kts | 183° |
| 2026-04-26 16:42 | 49.47554 | 8.52028 | 312 ft | 5 kts | 184° |
| 2026-04-26 16:42 | 49.47541 | 8.52060 | 312 ft | 4 kts | 95° |
| 2026-04-26 16:42 | 49.47538 | 8.52139 | 313 ft | 9 kts | 93° |
| 2026-04-26 16:43 | 49.47496 | 8.52170 | 313 ft | 12 kts | 188° |
| 2026-04-26 16:43 | 49.47398 | 8.52161 | 314 ft | 16 kts | 182° |
| 2026-04-26 16:43 | 49.47315 | 8.52154 | 312 ft | 12 kts | 185° |
| 2026-04-26 16:43 | 49.47277 | 8.52150 | 311 ft | 0 kts | 181° |
| 2026-04-26 16:44 | 49.47274 | 8.52150 | 311 ft | 2 kts | 181° |
| 2026-04-26 16:44 | 49.47248 | 8.52109 | 311 ft | 10 kts | 268° |
| 2026-04-26 16:44 | 49.47249 | 8.52083 | 311 ft | 0 kts | 272° |
| 2026-04-26 16:45 | 49.47254 | 8.51900 | 311 ft | 51 kts | 275° |
| 2026-04-26 16:45 | 49.47276 | 8.51109 | 366 ft | 86 kts | 273° |
| 2026-04-26 16:45 | 49.47317 | 8.50175 | 542 ft | 89 kts | 282° |
| 2026-04-26 16:45 | 49.47304 | 8.49250 | 805 ft | 87 kts | 256° |
| 2026-04-26 16:46 | 49.46910 | 8.48531 | 1062 ft | 93 kts | 198° |
| 2026-04-26 16:46 | 49.46319 | 8.48800 | 1246 ft | 96 kts | 127° |
| 2026-04-26 16:46 | 49.46050 | 8.49769 | 1346 ft | 106 kts | 101° |
| 2026-04-26 16:46 | 49.45848 | 8.50903 | 1388 ft | 112 kts | 100° |
| 2026-04-26 16:47 | 49.45643 | 8.52090 | 1389 ft | 116 kts | 99° |
| 2026-04-26 16:47 | 49.45450 | 8.53302 | 1387 ft | 117 kts | 97° |
| 2026-04-26 16:47 | 49.45327 | 8.54121 | 1376 ft | 119 kts | 96° |
| 2026-04-26 16:47 | 49.45173 | 8.55383 | 1362 ft | 118 kts | 92° |
| 2026-04-26 16:48 | 49.45489 | 8.56450 | 1344 ft | 79 kts | 18° |
| 2026-04-26 16:48 | 49.45862 | 8.56479 | 1256 ft | 84 kts | 354° |
| 2026-04-26 16:48 | 49.46419 | 8.56134 | 1080 ft | 88 kts | 331° |
| 2026-04-26 16:48 | 49.46861 | 8.55496 | 877 ft | 88 kts | 310° |
| 2026-04-26 16:49 | 49.47100 | 8.54626 | 713 ft | 85 kts | 288° |
| 2026-04-26 16:49 | 49.47182 | 8.53757 | 589 ft | 84 kts | 277° |
| 2026-04-26 16:49 | 49.47217 | 8.52903 | 486 ft | 77 kts | 281° |
| 2026-04-26 16:49 | 49.47241 | 8.52115 | 356 ft | 71 kts | 282° |
| 2026-04-26 16:50 | 49.47271 | 8.51407 | 310 ft | 61 kts | 277° |
| 2026-04-26 16:50 | 49.47291 | 8.50700 | 434 ft | 72 kts | 274° |
| 2026-04-26 16:50 | 49.47298 | 8.49878 | 691 ft | 81 kts | 275° |
| 2026-04-26 16:50 | 49.47207 | 8.48955 | 936 ft | 90 kts | 242° |
| 2026-04-26 16:51 | 49.46647 | 8.48582 | 1220 ft | 98 kts | 169° |
| 2026-04-26 16:51 | 49.46116 | 8.49262 | 1279 ft | 110 kts | 111° |
| 2026-04-26 16:51 | 49.45853 | 8.50418 | 1309 ft | 122 kts | 101° |
| 2026-04-26 16:51 | 49.45678 | 8.51708 | 1345 ft | 124 kts | 95° |
| 2026-04-26 16:52 | 49.45547 | 8.53015 | 1307 ft | 124 kts | 94° |
| 2026-04-26 16:52 | 49.45478 | 8.53891 | 1283 ft | 125 kts | 93° |
| 2026-04-26 16:52 | 49.45388 | 8.55466 | 1310 ft | 87 kts | 69° |
| 2026-04-26 16:52 | 49.45779 | 8.56024 | 1264 ft | 80 kts | 14° |
| 2026-04-26 16:53 | 49.46332 | 8.56067 | 1192 ft | 80 kts | 359° |
| 2026-04-26 16:53 | 49.46857 | 8.55749 | 1049 ft | 90 kts | 320° |
| 2026-04-26 16:53 | 49.47141 | 8.54853 | 845 ft | 96 kts | 284° |
| 2026-04-26 16:53 | 49.47164 | 8.53850 | 651 ft | 89 kts | 281° |
| 2026-04-26 16:54 | 49.47213 | 8.52948 | 487 ft | 81 kts | 278° |
| 2026-04-26 16:54 | 49.47246 | 8.52087 | 338 ft | 80 kts | 279° |
| 2026-04-26 16:54 | 49.47276 | 8.51278 | 309 ft | 72 kts | 275° |
| 2026-04-26 16:54 | 49.47287 | 8.50433 | 572 ft | 77 kts | 277° |
| 2026-04-26 16:55 | 49.47282 | 8.49583 | 859 ft | 83 kts | 275° |
| 2026-04-26 16:55 | 49.47306 | 8.48608 | 992 ft | 97 kts | 278° |
| 2026-04-26 16:55 | 49.47355 | 8.47548 | 1196 ft | 100 kts | 272° |
| 2026-04-26 16:55 | 49.47046 | 8.46656 | 1488 ft | 101 kts | 216° |
| 2026-04-26 16:56 | 49.45693 | 8.45803 | 2006 ft | 106 kts | 196° |
| 2026-04-26 16:56 | 49.44982 | 8.45446 | 2237 ft | 108 kts | 195° |
| 2026-04-26 16:56 | 49.44267 | 8.45086 | 2437 ft | 112 kts | 195° |
| 2026-04-26 16:57 | 49.43469 | 8.44754 | 2486 ft | 127 kts | 190° |
| 2026-04-26 16:57 | 49.42565 | 8.44505 | 2551 ft | 135 kts | 187° |
| 2026-04-26 16:57 | 49.40623 | 8.44341 | 2565 ft | 142 kts | 178° |
| 2026-04-26 16:58 | 49.39645 | 8.44339 | 2626 ft | 141 kts | 179° |
| 2026-04-26 16:58 | 49.39009 | 8.44228 | 2747 ft | 136 kts | 187° |
| 2026-04-26 16:58 | 49.37028 | 8.43107 | 3079 ft | 131 kts | 208° |
| 2026-04-26 16:59 | 49.36219 | 8.42506 | 3218 ft | 130 kts | 204° |
| 2026-04-26 16:59 | 49.34673 | 8.41101 | 3482 ft | 128 kts | 212° |
| 2026-04-26 17:00 | 49.33084 | 8.39566 | 3499 ft | 138 kts | 213° |
| 2026-04-26 17:00 | 49.31446 | 8.37985 | 3584 ft | 140 kts | 212° |
| 2026-04-26 17:00 | 49.30645 | 8.37212 | 3709 ft | 134 kts | 212° |
| 2026-04-26 17:01 | 49.29866 | 8.36470 | 3858 ft | 130 kts | 212° |
| 2026-04-26 17:01 | 49.29091 | 8.35740 | 3981 ft | 129 kts | 212° |
| 2026-04-26 17:01 | 49.28294 | 8.34998 | 3993 ft | 138 kts | 212° |
| 2026-04-26 17:01 | 49.27471 | 8.34228 | 3997 ft | 142 kts | 213° |
| 2026-04-26 17:02 | 49.26622 | 8.33434 | 4000 ft | 143 kts | 212° |
| 2026-04-26 17:02 | 49.25784 | 8.32632 | 4006 ft | 142 kts | 213° |
| 2026-04-26 17:02 | 49.24939 | 8.31838 | 4009 ft | 143 kts | 212° |
| 2026-04-26 17:02 | 49.24088 | 8.31033 | 4004 ft | 143 kts | 212° |
| 2026-04-26 17:03 | 49.23240 | 8.30235 | 4004 ft | 143 kts | 213° |
| 2026-04-26 17:03 | 49.22393 | 8.29438 | 4002 ft | 142 kts | 211° |
| 2026-04-26 17:03 | 49.21571 | 8.28633 | 4003 ft | 142 kts | 213° |
| 2026-04-26 17:03 | 49.20735 | 8.27822 | 4002 ft | 142 kts | 213° |
| 2026-04-26 17:04 | 49.19988 | 8.26854 | 4005 ft | 140 kts | 224° |
| 2026-04-26 17:04 | 49.19272 | 8.25837 | 4011 ft | 141 kts | 223° |
| 2026-04-26 17:04 | 49.18552 | 8.24818 | 4009 ft | 141 kts | 223° |
| 2026-04-26 17:04 | 49.17834 | 8.23805 | 4005 ft | 143 kts | 223° |
| 2026-04-26 17:05 | 49.17105 | 8.22787 | 3992 ft | 140 kts | 224° |
| 2026-04-26 17:05 | 49.16409 | 8.21813 | 3856 ft | 129 kts | 223° |
| 2026-04-26 17:05 | 49.15769 | 8.20913 | 3723 ft | 124 kts | 223° |
| 2026-04-26 17:05 | 49.15145 | 8.20037 | 3584 ft | 119 kts | 223° |
| 2026-04-26 17:06 | 49.14550 | 8.19176 | 3458 ft | 118 kts | 224° |
| 2026-04-26 17:06 | 49.13956 | 8.18326 | 3317 ft | 114 kts | 226° |
| 2026-04-26 17:06 | 49.13434 | 8.17437 | 3186 ft | 113 kts | 229° |
| 2026-04-26 17:06 | 49.12900 | 8.16550 | 3047 ft | 113 kts | 228° |
| 2026-04-26 17:07 | 49.12380 | 8.15681 | 2996 ft | 106 kts | 229° |
| 2026-04-26 17:07 | 49.11901 | 8.14884 | 2983 ft | 99 kts | 228° |
| 2026-04-26 17:07 | 49.11442 | 8.14126 | 2992 ft | 104 kts | 228° |
| 2026-04-26 17:07 | 49.10903 | 8.13212 | 3011 ft | 124 kts | 229° |
| 2026-04-26 17:08 | 49.10281 | 8.12186 | 3014 ft | 135 kts | 228° |
| 2026-04-26 17:08 | 49.09638 | 8.11110 | 3005 ft | 141 kts | 228° |
| 2026-04-26 17:08 | 49.08975 | 8.10000 | 3008 ft | 141 kts | 228° |
| 2026-04-26 17:08 | 49.08311 | 8.08870 | 3007 ft | 144 kts | 229° |
| 2026-04-26 17:09 | 49.07644 | 8.07732 | 3004 ft | 143 kts | 229° |
| 2026-04-26 17:09 | 49.07202 | 8.06983 | 3002 ft | 144 kts | 229° |
| 2026-04-26 17:09 | 49.06296 | 8.05466 | 2998 ft | 144 kts | 228° |
| 2026-04-26 17:09 | 49.05615 | 8.04340 | 2993 ft | 143 kts | 228° |
| 2026-04-26 17:10 | 49.04948 | 8.03224 | 2993 ft | 141 kts | 228° |
| 2026-04-26 17:10 | 49.04296 | 8.02121 | 2995 ft | 142 kts | 228° |
| 2026-04-26 17:10 | 49.03639 | 8.01007 | 3014 ft | 139 kts | 229° |
| 2026-04-26 17:10 | 49.02982 | 7.99901 | 3011 ft | 141 kts | 228° |
| 2026-04-26 17:11 | 49.02327 | 7.98799 | 3015 ft | 141 kts | 227° |
| 2026-04-26 17:11 | 49.01674 | 7.97655 | 3012 ft | 144 kts | 229° |
| 2026-04-26 17:11 | 49.01020 | 7.96511 | 3014 ft | 146 kts | 228° |
| 2026-04-26 17:11 | 49.00346 | 7.95361 | 3014 ft | 144 kts | 229° |
| 2026-04-26 17:12 | 48.99006 | 7.93086 | 3020 ft | 144 kts | 230° |
| 2026-04-26 17:12 | 48.98215 | 7.92200 | 3014 ft | 144 kts | 201° |
| 2026-04-26 17:13 | 48.96284 | 7.91454 | 3010 ft | 142 kts | 183° |
| 2026-04-26 17:13 | 48.95315 | 7.91293 | 3017 ft | 142 kts | 182° |
| 2026-04-26 17:13 | 48.93332 | 7.91074 | 3009 ft | 142 kts | 160° |
| 2026-04-26 17:14 | 48.92427 | 7.91611 | 3010 ft | 138 kts | 153° |
| 2026-04-26 17:14 | 48.90590 | 7.92627 | 2851 ft | 146 kts | 158° |
| 2026-04-26 17:14 | 48.89627 | 7.93059 | 2731 ft | 144 kts | 159° |
| 2026-04-26 17:15 | 48.87747 | 7.93948 | 2516 ft | 137 kts | 158° |
| 2026-04-26 17:15 | 48.86874 | 7.94332 | 2509 ft | 127 kts | 159° |
| 2026-04-26 17:15 | 48.86048 | 7.94738 | 2493 ft | 123 kts | 158° |
| 2026-04-26 17:16 | 48.85225 | 7.95164 | 2452 ft | 126 kts | 152° |
| 2026-04-26 17:16 | 48.84460 | 7.95779 | 2435 ft | 123 kts | 141° |
| 2026-04-26 17:16 | 48.83827 | 7.96604 | 2430 ft | 119 kts | 128° |
| 2026-04-26 17:16 | 48.83305 | 7.97548 | 2436 ft | 117 kts | 120° |
| 2026-04-26 17:17 | 48.82915 | 7.98628 | 2421 ft | 117 kts | 105° |
| 2026-04-26 17:17 | 48.82753 | 7.99845 | 2331 ft | 119 kts | 95° |
| 2026-04-26 17:17 | 48.82541 | 8.01037 | 2345 ft | 118 kts | 110° |
| 2026-04-26 17:17 | 48.82033 | 8.02044 | 2280 ft | 125 kts | 133° |
| 2026-04-26 17:18 | 48.81280 | 8.02769 | 2150 ft | 133 kts | 148° |
| 2026-04-26 17:18 | 48.80457 | 8.03422 | 2020 ft | 134 kts | 147° |
| 2026-04-26 17:18 | 48.79645 | 8.04111 | 1882 ft | 134 kts | 146° |
| 2026-04-26 17:18 | 48.78800 | 8.04628 | 1815 ft | 121 kts | 173° |
| 2026-04-26 17:19 | 48.77411 | 8.03920 | 1702 ft | 99 kts | 205° |
| 2026-04-26 17:19 | 48.76773 | 8.03648 | 1616 ft | 94 kts | 177° |
| 2026-04-26 17:19 | 48.76189 | 8.04033 | 1512 ft | 96 kts | 127° |
| 2026-04-26 17:20 | 48.75824 | 8.04931 | 1300 ft | 112 kts | 97° |
| 2026-04-26 17:20 | 48.75812 | 8.05345 | 1169 ft | 122 kts | 79° |
| 2026-04-26 17:20 | 48.76850 | 8.07027 | 776 ft | 137 kts | 30° |
| 2026-04-26 17:20 | 48.77648 | 8.07761 | 746 ft | 130 kts | 30° |
| 2026-04-26 17:21 | 48.78391 | 8.08479 | 726 ft | 128 kts | 30° |
| 2026-04-26 17:21 | 48.79122 | 8.09132 | 886 ft | 110 kts | 25° |
| 2026-04-26 17:21 | 48.79846 | 8.09197 | 1139 ft | 101 kts | 347° |
| 2026-04-26 17:21 | 48.80361 | 8.08544 | 1395 ft | 106 kts | 302° |
| 2026-04-26 17:22 | 48.80336 | 8.07321 | 1391 ft | 130 kts | 247° |
| 2026-04-26 17:22 | 48.79714 | 8.06309 | 1390 ft | 136 kts | 214° |
| 2026-04-26 17:22 | 48.78916 | 8.05515 | 1418 ft | 136 kts | 213° |
| 2026-04-26 17:22 | 48.78149 | 8.04713 | 1472 ft | 133 kts | 215° |
| 2026-04-26 17:23 | 48.77397 | 8.03903 | 1559 ft | 130 kts | 219° |
| 2026-04-26 17:23 | 48.76709 | 8.03062 | 1716 ft | 126 kts | 220° |
| 2026-04-26 17:23 | 48.76026 | 8.02220 | 1794 ft | 130 kts | 224° |
| 2026-04-26 17:23 | 48.75304 | 8.01409 | 1877 ft | 128 kts | 196° |
| 2026-04-26 17:24 | 48.74599 | 8.01595 | 1840 ft | 96 kts | 136° |
| 2026-04-26 17:24 | 48.74313 | 8.02457 | 1640 ft | 98 kts | 92° |
| 2026-04-26 17:24 | 48.74373 | 8.03516 | 1488 ft | 104 kts | 75° |
| 2026-04-26 17:24 | 48.74576 | 8.04458 | 1332 ft | 87 kts | 57° |
| 2026-04-26 17:25 | 48.74919 | 8.05155 | 1113 ft | 84 kts | 42° |
| 2026-04-26 17:25 | 48.75332 | 8.05598 | 1030 ft | 68 kts | 30° |
| 2026-04-26 17:25 | 48.75773 | 8.06016 | 882 ft | 83 kts | 33° |
| 2026-04-26 17:25 | 48.76276 | 8.06486 | 717 ft | 86 kts | 32° |
| 2026-04-26 17:26 | 48.76761 | 8.06941 | 527 ft | 79 kts | 32° |
| 2026-04-26 17:26 | 48.77197 | 8.07357 | 413 ft | 69 kts | 33° |
| 2026-04-26 17:26 | 48.77571 | 8.07709 | 414 ft | 66 kts | 32° |
| 2026-04-26 17:26 | 48.77982 | 8.08097 | 673 ft | 72 kts | 32° |
| 2026-04-26 17:27 | 48.78370 | 8.08581 | 979 ft | 73 kts | 49° |
| 2026-04-26 17:27 | 48.78522 | 8.09284 | 1345 ft | 79 kts | 95° |
| 2026-04-26 17:27 | 48.78177 | 8.10056 | 1517 ft | 100 kts | 126° |
| 2026-04-26 17:27 | 48.77727 | 8.10948 | 1625 ft | 110 kts | 120° |
| 2026-04-26 17:28 | 48.77415 | 8.12024 | 1688 ft | 115 kts | 103° |
| 2026-04-26 17:28 | 48.76956 | 8.13039 | 1778 ft | 123 kts | 133° |
| 2026-04-26 17:28 | 48.76315 | 8.13929 | 1865 ft | 127 kts | 133° |
| 2026-04-26 17:28 | 48.75669 | 8.14864 | 1948 ft | 128 kts | 129° |
| 2026-04-26 17:29 | 48.75063 | 8.15867 | 2002 ft | 129 kts | 123° |
| 2026-04-26 17:29 | 48.74887 | 8.16218 | 2033 ft | 128 kts | 120° |
| 2026-04-26 17:29 | 48.74329 | 8.18239 | 2238 ft | 122 kts | 99° |
| 2026-04-26 17:29 | 48.74222 | 8.19501 | 2265 ft | 121 kts | 82° |
| 2026-04-26 17:30 | 48.74477 | 8.20645 | 2330 ft | 116 kts | 53° |
| 2026-04-26 17:30 | 48.75053 | 8.21499 | 2411 ft | 118 kts | 34° |
| 2026-04-26 17:30 | 48.75767 | 8.22117 | 2473 ft | 115 kts | 31° |
| 2026-04-26 17:30 | 48.76481 | 8.22726 | 2438 ft | 122 kts | 30° |
| 2026-04-26 17:31 | 48.77220 | 8.23373 | 2452 ft | 123 kts | 32° |
| 2026-04-26 17:31 | 48.77962 | 8.24024 | 2428 ft | 123 kts | 31° |
| 2026-04-26 17:31 | 48.78700 | 8.24666 | 2415 ft | 122 kts | 31° |
| 2026-04-26 17:31 | 48.79365 | 8.25410 | 2351 ft | 121 kts | 51° |
| 2026-04-26 17:32 | 48.79852 | 8.26345 | 2578 ft | 106 kts | 50° |
| 2026-04-26 17:32 | 48.80322 | 8.27143 | 2806 ft | 95 kts | 47° |
| 2026-04-26 17:32 | 48.80739 | 8.27839 | 3041 ft | 85 kts | 49° |
| 2026-04-26 17:32 | 48.81136 | 8.28498 | 3279 ft | 84 kts | 48° |
| 2026-04-26 17:33 | 48.81535 | 8.29161 | 3528 ft | 86 kts | 49° |
| 2026-04-26 17:33 | 48.81940 | 8.29826 | 3780 ft | 88 kts | 48° |
| 2026-04-26 17:33 | 48.82348 | 8.30495 | 3997 ft | 88 kts | 47° |
| 2026-04-26 17:34 | 48.83322 | 8.32099 | 4025 ft | 115 kts | 47° |
| 2026-04-26 17:34 | 48.83688 | 8.32698 | 4025 ft | 117 kts | 48° |
| 2026-04-26 17:34 | 48.84243 | 8.33607 | 4030 ft | 118 kts | 47° |
| 2026-04-26 17:34 | 48.84788 | 8.34588 | 4020 ft | 123 kts | 62° |
| 2026-04-26 17:35 | 48.84952 | 8.36317 | 4026 ft | 127 kts | 80° |
| 2026-04-26 17:35 | 48.85032 | 8.37220 | 4022 ft | 128 kts | 80° |
| 2026-04-26 17:35 | 48.85154 | 8.38568 | 4023 ft | 129 kts | 81° |
| 2026-04-26 17:35 | 48.85270 | 8.39884 | 4025 ft | 127 kts | 81° |
| 2026-04-26 17:36 | 48.85387 | 8.41211 | 4027 ft | 126 kts | 79° |
| 2026-04-26 17:36 | 48.85502 | 8.42517 | 4029 ft | 124 kts | 80° |
| 2026-04-26 17:36 | 48.85618 | 8.43836 | 4044 ft | 126 kts | 79° |
| 2026-04-26 17:36 | 48.85735 | 8.45153 | 4038 ft | 128 kts | 80° |
| 2026-04-26 17:37 | 48.85856 | 8.46507 | 4042 ft | 131 kts | 79° |
| 2026-04-26 17:37 | 48.85978 | 8.47887 | 4041 ft | 132 kts | 80° |
| 2026-04-26 17:37 | 48.86099 | 8.49259 | 4044 ft | 130 kts | 79° |
| 2026-04-26 17:38 | 48.86341 | 8.52019 | 4036 ft | 133 kts | 81° |
| 2026-04-26 17:38 | 48.86461 | 8.53400 | 4046 ft | 133 kts | 80° |
| 2026-04-26 17:38 | 48.86584 | 8.54799 | 4042 ft | 133 kts | 81° |
| 2026-04-26 17:38 | 48.86706 | 8.56198 | 4046 ft | 133 kts | 80° |
| 2026-04-26 17:39 | 48.86829 | 8.57594 | 4042 ft | 135 kts | 81° |
| 2026-04-26 17:39 | 48.86693 | 8.58973 | 4024 ft | 140 kts | 120° |
| 2026-04-26 17:39 | 48.85927 | 8.59897 | 4030 ft | 142 kts | 144° |
| 2026-04-26 17:39 | 48.85088 | 8.60700 | 4035 ft | 143 kts | 143° |
| 2026-04-26 17:40 | 48.84311 | 8.61609 | 4031 ft | 140 kts | 122° |
| 2026-04-26 17:40 | 48.84043 | 8.62485 | 4017 ft | 137 kts | 108° |
| 2026-04-26 17:40 | 48.83591 | 8.64275 | 4038 ft | 135 kts | 108° |
| 2026-04-26 17:40 | 48.83232 | 8.65605 | 4039 ft | 136 kts | 108° |
| 2026-04-26 17:41 | 48.82857 | 8.66938 | 4044 ft | 138 kts | 108° |
| 2026-04-26 17:41 | 48.82502 | 8.68291 | 4044 ft | 138 kts | 107° |
| 2026-04-26 17:41 | 48.82139 | 8.69635 | 4045 ft | 140 kts | 109° |
| 2026-04-26 17:41 | 48.81794 | 8.71003 | 4046 ft | 138 kts | 108° |
| 2026-04-26 17:42 | 48.81429 | 8.72364 | 4054 ft | 139 kts | 109° |
| 2026-04-26 17:42 | 48.81051 | 8.73745 | 4029 ft | 142 kts | 107° |
| 2026-04-26 17:42 | 48.80687 | 8.75112 | 4033 ft | 138 kts | 108° |
| 2026-04-26 17:42 | 48.80316 | 8.76452 | 4027 ft | 138 kts | 110° |
| 2026-04-26 17:43 | 48.79949 | 8.77792 | 4035 ft | 139 kts | 107° |
| 2026-04-26 17:43 | 48.79574 | 8.79154 | 4030 ft | 140 kts | 109° |
| 2026-04-26 17:43 | 48.79207 | 8.80519 | 4028 ft | 141 kts | 108° |
| 2026-04-26 17:43 | 48.78839 | 8.81894 | 4026 ft | 139 kts | 108° |
| 2026-04-26 17:44 | 48.78473 | 8.83235 | 4027 ft | 138 kts | 109° |
| 2026-04-26 17:44 | 48.78103 | 8.84584 | 4024 ft | 139 kts | 108° |
| 2026-04-26 17:44 | 48.77722 | 8.85937 | 4022 ft | 139 kts | 108° |
| 2026-04-26 17:44 | 48.77349 | 8.87281 | 4016 ft | 138 kts | 108° |
| 2026-04-26 17:45 | 48.76976 | 8.88631 | 3901 ft | 138 kts | 109° |
| 2026-04-26 17:45 | 48.76610 | 8.89980 | 3771 ft | 139 kts | 108° |
| 2026-04-26 17:45 | 48.76240 | 8.91312 | 3647 ft | 138 kts | 109° |
| 2026-04-26 17:45 | 48.75866 | 8.92642 | 3533 ft | 135 kts | 107° |
| 2026-04-26 17:46 | 48.75502 | 8.93921 | 3508 ft | 130 kts | 108° |
| 2026-04-26 17:46 | 48.75130 | 8.95198 | 3376 ft | 134 kts | 109° |
| 2026-04-26 17:46 | 48.74772 | 8.96483 | 3223 ft | 134 kts | 109° |
| 2026-04-26 17:46 | 48.74407 | 8.97791 | 3072 ft | 135 kts | 110° |
| 2026-04-26 17:47 | 48.74056 | 8.99111 | 2923 ft | 135 kts | 108° |
| 2026-04-26 17:47 | 48.73819 | 8.99998 | 2823 ft | 137 kts | 109° |
| 2026-04-26 17:47 | 48.73316 | 9.01779 | 2611 ft | 136 kts | 109° |
| 2026-04-26 17:47 | 48.72964 | 9.03094 | 2489 ft | 133 kts | 105° |
| 2026-04-26 17:48 | 48.72737 | 9.04395 | 2478 ft | 125 kts | 98° |
| 2026-04-26 17:48 | 48.72590 | 9.05696 | 2455 ft | 124 kts | 94° |
| 2026-04-26 17:48 | 48.72399 | 9.06935 | 2507 ft | 119 kts | 112° |
| 2026-04-26 17:48 | 48.71978 | 9.08012 | 2648 ft | 118 kts | 127° |
| 2026-04-26 17:49 | 48.71403 | 9.08917 | 2747 ft | 122 kts | 130° |
| 2026-04-26 17:49 | 48.70757 | 9.09815 | 2729 ft | 131 kts | 131° |
| 2026-04-26 17:49 | 48.70105 | 9.10785 | 2711 ft | 133 kts | 127° |
| 2026-04-26 17:49 | 48.69540 | 9.11930 | 2561 ft | 139 kts | 119° |
| 2026-04-26 17:50 | 48.69029 | 9.13039 | 2377 ft | 113 kts | 120° |
| 2026-04-26 17:50 | 48.68651 | 9.13984 | 2251 ft | 107 kts | 111° |
| 2026-04-26 17:50 | 48.68354 | 9.15039 | 2104 ft | 110 kts | 104° |
| 2026-04-26 17:50 | 48.68120 | 9.16197 | 1932 ft | 118 kts | 100° |
| 2026-04-26 17:51 | 48.68078 | 9.17398 | 1756 ft | 107 kts | 78° |
| 2026-04-26 17:51 | 48.68273 | 9.18449 | 1617 ft | 106 kts | 68° |
| 2026-04-26 17:51 | 48.68478 | 9.19518 | 1458 ft | 105 kts | 69° |
| 2026-04-26 17:51 | 48.68673 | 9.20537 | 1306 ft | 97 kts | 69° |
| 2026-04-26 17:52 | 48.68840 | 9.21417 | 1284 ft | 78 kts | 71° |
| 2026-04-26 17:52 | 48.68976 | 9.22128 | 1280 ft | 64 kts | 71° |
| 2026-04-26 17:52 | 48.69068 | 9.22614 | 1280 ft | 39 kts | 76° |
| 2026-04-26 17:52 | 48.69173 | 9.22948 | 1280 ft | 31 kts | 53° |
| 2026-04-26 17:53 | 48.69272 | 9.23103 | 1280 ft | 12 kts | 41° |
| 2026-04-26 17:53 | 48.69332 | 9.23156 | 1280 ft | 9 kts | 4° |
| 2026-04-26 17:53 | 48.69399 | 9.23107 | 1280 ft | 12 kts | 303° |
| 2026-04-26 17:54 | 48.69356 | 9.22740 | 1280 ft | 22 kts | 257° |
| 2026-04-26 17:54 | 48.69309 | 9.22520 | 1280 ft | 24 kts | 253° |
| 2026-04-26 17:54 | 48.69258 | 9.22250 | 1280 ft | 28 kts | 255° |
| 2026-04-26 17:54 | 48.69201 | 9.21952 | 1280 ft | 30 kts | 255° |
| 2026-04-26 17:55 | 48.69143 | 9.21643 | 1280 ft | 31 kts | 255° |
| 2026-04-26 17:55 | 48.69089 | 9.21372 | 1280 ft | 17 kts | 253° |
| 2026-04-26 17:55 | 48.69125 | 9.21297 | 1280 ft | 10 kts | 347° |
| 2026-04-26 17:55 | 48.69198 | 9.21262 | 1280 ft | 10 kts | 323° |
| 2026-04-26 17:56 | 48.69175 | 9.21237 | 1280 ft | 0 kts | 194° |